sensor_id;sensor_type;location;lat;lon;timestamp;pressure;altitude;pressure_sealevel;temperature;humidity
38197;BME280;26543;51.976;4.616;2023-05-14T00:04:03;52642.47;;;-140.72;100.00
38197;BME280;26543;51.976;4.616;2023-05-14T00:06:28;52603.94;;;-140.72;100.00
38197;BME280;26543;51.976;4.616;2023-05-14T00:08:53;52632.34;;;-140.72;100.00
38197;BME280;26543;51.976;4.616;2023-05-14T00:11:34;52624.22;;;-140.72;100.00
38197;BME280;26543;51.976;4.616;2023-05-14T00:14:00;52656.69;;;-140.72;100.00
38197;BME280;26543;51.976;4.616;2023-05-14T00:16:26;52650.59;;;-140.72;100.00
38197;BME280;26543;51.976;4.616;2023-05-14T00:18:51;52626.25;;;-140.72;100.00
38197;BME280;26543;51.976;4.616;2023-05-14T00:21:17;52642.47;;;-140.72;100.00
38197;BME280;26543;51.976;4.616;2023-05-14T00:23:42;52679.00;;;-140.72;100.00
38197;BME280;26543;51.976;4.616;2023-05-14T00:26:07;52664.81;;;-140.72;100.00
38197;BME280;26543;51.976;4.616;2023-05-14T00:28:32;52658.72;;;-140.72;100.00
38197;BME280;26543;51.976;4.616;2023-05-14T00:30:58;52666.84;;;-140.72;100.00
38197;BME280;26543;51.976;4.616;2023-05-14T00:33:23;52624.22;;;-140.72;100.00
38197;BME280;26543;51.976;4.616;2023-05-14T00:35:48;52656.69;;;-140.72;100.00
38197;BME280;26543;51.976;4.616;2023-05-14T00:38:14;52654.66;;;-140.72;100.00
38197;BME280;26543;51.976;4.616;2023-05-14T00:40:43;52626.25;;;-140.72;100.00
38197;BME280;26543;51.976;4.616;2023-05-14T00:43:10;52648.56;;;-140.72;100.00
38197;BME280;26543;51.976;4.616;2023-05-14T00:45:35;52654.66;;;-140.72;100.00
38197;BME280;26543;51.976;4.616;2023-05-14T00:48:00;52679.00;;;-140.72;100.00
38197;BME280;26543;51.976;4.616;2023-05-14T00:50:25;52658.72;;;-140.72;100.00
38197;BME280;26543;51.976;4.616;2023-05-14T00:52:51;52654.66;;;-140.72;100.00
38197;BME280;26543;51.976;4.616;2023-05-14T00:55:17;52632.34;;;-140.72;100.00
38197;BME280;26543;51.976;4.616;2023-05-14T00:57:42;52652.63;;;-140.72;100.00
38197;BME280;26543;51.976;4.616;2023-05-14T01:00:08;52632.34;;;-140.72;100.00
38197;BME280;26543;51.976;4.616;2023-05-14T01:02:33;52644.50;;;-140.72;100.00
38197;BME280;26543;51.976;4.616;2023-05-14T01:04:59;52664.81;;;-140.72;100.00
38197;BME280;26543;51.976;4.616;2023-05-14T01:07:29;52652.63;;;-140.72;100.00
38197;BME280;26543;51.976;4.616;2023-05-14T01:10:14;52689.16;;;-140.72;100.00
38197;BME280;26543;51.976;4.616;2023-05-14T01:12:51;52654.66;;;-140.72;100.00
38197;BME280;26543;51.976;4.616;2023-05-14T01:15:20;52638.41;;;-140.72;100.00
38197;BME280;26543;51.976;4.616;2023-05-14T01:17:47;52674.94;;;-140.72;100.00
38197;BME280;26543;51.976;4.616;2023-05-14T01:20:14;52691.19;;;-140.72;100.00
38197;BME280;26543;51.976;4.616;2023-05-14T01:22:40;52679.00;;;-140.72;100.00
38197;BME280;26543;51.976;4.616;2023-05-14T01:25:05;52646.53;;;-140.72;100.00
38197;BME280;26543;51.976;4.616;2023-05-14T01:27:41;52662.78;;;-140.72;100.00
38197;BME280;26543;51.976;4.616;2023-05-14T01:32:42;52691.19;;;-140.72;100.00
38197;BME280;26543;51.976;4.616;2023-05-14T01:35:09;52636.38;;;-140.72;100.00
38197;BME280;26543;51.976;4.616;2023-05-14T01:37:34;52670.88;;;-140.72;100.00
38197;BME280;26543;51.976;4.616;2023-05-14T01:40:00;52648.56;;;-140.72;100.00
38197;BME280;26543;51.976;4.616;2023-05-14T01:42:26;52687.13;;;-140.72;100.00
38197;BME280;26543;51.976;4.616;2023-05-14T01:44:52;52679.00;;;-140.72;100.00
38197;BME280;26543;51.976;4.616;2023-05-14T01:47:18;52683.06;;;-140.72;100.00
38197;BME280;26543;51.976;4.616;2023-05-14T01:49:50;52703.34;;;-140.72;100.00
38197;BME280;26543;51.976;4.616;2023-05-14T01:52:16;52666.84;;;-140.72;100.00
38197;BME280;26543;51.976;4.616;2023-05-14T01:54:52;52634.38;;;-140.72;100.00
38197;BME280;26543;51.976;4.616;2023-05-14T01:57:17;52683.06;;;-140.72;100.00
38197;BME280;26543;51.976;4.616;2023-05-14T01:59:42;52640.44;;;-140.72;100.00
38197;BME280;26543;51.976;4.616;2023-05-14T02:02:21;52658.72;;;-140.72;100.00
38197;BME280;26543;51.976;4.616;2023-05-14T02:04:47;52721.63;;;-140.72;100.00
38197;BME280;26543;51.976;4.616;2023-05-14T02:07:12;52681.03;;;-140.72;100.00
38197;BME280;26543;51.976;4.616;2023-05-14T02:09:37;52679.00;;;-140.72;100.00
38197;BME280;26543;51.976;4.616;2023-05-14T02:12:04;52705.38;;;-140.72;100.00
38197;BME280;26543;51.976;4.616;2023-05-14T02:14:29;52721.63;;;-140.72;100.00
38197;BME280;26543;51.976;4.616;2023-05-14T02:16:54;52695.25;;;-140.72;100.00
38197;BME280;26543;51.976;4.616;2023-05-14T02:19:20;52679.00;;;-140.72;100.00
38197;BME280;26543;51.976;4.616;2023-05-14T02:21:45;52681.03;;;-140.72;100.00
38197;BME280;26543;51.976;4.616;2023-05-14T02:24:11;52674.94;;;-140.72;100.00
38197;BME280;26543;51.976;4.616;2023-05-14T02:26:36;52683.06;;;-140.72;100.00
38197;BME280;26543;51.976;4.616;2023-05-14T02:29:01;52668.84;;;-140.72;100.00
38197;BME280;26543;51.976;4.616;2023-05-14T02:31:26;52662.78;;;-140.72;100.00
38197;BME280;26543;51.976;4.616;2023-05-14T02:33:51;52664.81;;;-140.72;100.00
38197;BME280;26543;51.976;4.616;2023-05-14T02:36:17;52668.84;;;-140.72;100.00
38197;BME280;26543;51.976;4.616;2023-05-14T02:38:42;52634.38;;;-140.72;100.00
38197;BME280;26543;51.976;4.616;2023-05-14T02:41:07;52670.88;;;-140.72;100.00
38197;BME280;26543;51.976;4.616;2023-05-14T02:43:32;52693.22;;;-140.72;100.00
38197;BME280;26543;51.976;4.616;2023-05-14T02:46:16;52674.94;;;-140.72;100.00
38197;BME280;26543;51.976;4.616;2023-05-14T02:48:41;52709.44;;;-140.72;100.00
38197;BME280;26543;51.976;4.616;2023-05-14T02:51:10;52679.00;;;-140.72;100.00
38197;BME280;26543;51.976;4.616;2023-05-14T02:53:36;52687.13;;;-140.72;100.00
38197;BME280;26543;51.976;4.616;2023-05-14T02:56:01;52685.09;;;-140.72;100.00
38197;BME280;26543;51.976;4.616;2023-05-14T02:58:26;52654.66;;;-140.72;100.00
38197;BME280;26543;51.976;4.616;2023-05-14T03:00:52;52723.66;;;-140.72;100.00
38197;BME280;26543;51.976;4.616;2023-05-14T03:03:17;52662.78;;;-140.72;100.00
38197;BME280;26543;51.976;4.616;2023-05-14T03:05:43;52705.38;;;-140.72;100.00
38197;BME280;26543;51.976;4.616;2023-05-14T03:08:08;52666.84;;;-140.72;100.00
38197;BME280;26543;51.976;4.616;2023-05-14T03:10:33;52646.53;;;-140.72;100.00
38197;BME280;26543;51.976;4.616;2023-05-14T03:12:58;52687.13;;;-140.72;100.00
38197;BME280;26543;51.976;4.616;2023-05-14T03:15:24;52674.94;;;-140.72;100.00
38197;BME280;26543;51.976;4.616;2023-05-14T03:17:49;52717.56;;;-140.72;100.00
38197;BME280;26543;51.976;4.616;2023-05-14T03:20:15;52717.56;;;-140.72;100.00
38197;BME280;26543;51.976;4.616;2023-05-14T03:22:40;52674.94;;;-140.72;100.00
38197;BME280;26543;51.976;4.616;2023-05-14T03:25:05;52650.59;;;-140.72;100.00
38197;BME280;26543;51.976;4.616;2023-05-14T03:27:31;52687.13;;;-140.72;100.00
38197;BME280;26543;51.976;4.616;2023-05-14T03:29:57;52697.28;;;-140.72;100.00
38197;BME280;26543;51.976;4.616;2023-05-14T03:32:22;52681.03;;;-140.72;100.00
38197;BME280;26543;51.976;4.616;2023-05-14T03:34:47;52713.50;;;-140.72;100.00
38197;BME280;26543;51.976;4.616;2023-05-14T03:37:12;52676.97;;;-140.72;100.00
38197;BME280;26543;51.976;4.616;2023-05-14T03:39:38;52685.09;;;-140.72;100.00
38197;BME280;26543;51.976;4.616;2023-05-14T03:42:03;52695.25;;;-140.72;100.00
38197;BME280;26543;51.976;4.616;2023-05-14T03:44:28;52689.16;;;-140.72;100.00
38197;BME280;26543;51.976;4.616;2023-05-14T03:46:53;52707.41;;;-140.72;100.00
38197;BME280;26543;51.976;4.616;2023-05-14T03:49:19;52695.25;;;-140.72;100.00
38197;BME280;26543;51.976;4.616;2023-05-14T03:51:44;52703.34;;;-140.72;100.00
38197;BME280;26543;51.976;4.616;2023-05-14T03:54:10;52691.19;;;-140.72;100.00
38197;BME280;26543;51.976;4.616;2023-05-14T03:56:35;52699.31;;;-140.72;100.00
38197;BME280;26543;51.976;4.616;2023-05-14T03:59:00;52679.00;;;-140.72;100.00
38197;BME280;26543;51.976;4.616;2023-05-14T04:01:25;52695.25;;;-140.72;100.00
38197;BME280;26543;51.976;4.616;2023-05-14T04:03:51;52727.72;;;-140.72;100.00
38197;BME280;26543;51.976;4.616;2023-05-14T04:06:16;52687.13;;;-140.72;100.00
38197;BME280;26543;51.976;4.616;2023-05-14T04:08:41;52699.31;;;-140.72;100.00
38197;BME280;26543;51.976;4.616;2023-05-14T04:11:06;52693.22;;;-140.72;100.00
38197;BME280;26543;51.976;4.616;2023-05-14T04:13:32;52695.25;;;-140.72;100.00
38197;BME280;26543;51.976;4.616;2023-05-14T04:15:57;52709.44;;;-140.72;100.00
38197;BME280;26543;51.976;4.616;2023-05-14T04:18:22;52691.19;;;-140.72;100.00
38197;BME280;26543;51.976;4.616;2023-05-14T04:20:48;52681.03;;;-140.72;100.00
38197;BME280;26543;51.976;4.616;2023-05-14T04:23:13;52691.19;;;-140.72;100.00
38197;BME280;26543;51.976;4.616;2023-05-14T04:25:38;52739.88;;;-140.72;100.00
38197;BME280;26543;51.976;4.616;2023-05-14T04:28:03;52709.44;;;-140.72;100.00
38197;BME280;26543;51.976;4.616;2023-05-14T04:30:28;52662.78;;;-140.72;100.00
38197;BME280;26543;51.976;4.616;2023-05-14T04:32:54;52683.06;;;-140.72;100.00
38197;BME280;26543;51.976;4.616;2023-05-14T04:35:19;52711.47;;;-140.72;100.00
38197;BME280;26543;51.976;4.616;2023-05-14T04:37:45;52691.19;;;-140.72;100.00
38197;BME280;26543;51.976;4.616;2023-05-14T04:40:10;52674.94;;;-140.72;100.00
38197;BME280;26543;51.976;4.616;2023-05-14T04:42:36;52681.03;;;-140.72;100.00
38197;BME280;26543;51.976;4.616;2023-05-14T04:45:01;52727.72;;;-140.72;100.00
38197;BME280;26543;51.976;4.616;2023-05-14T04:47:29;52679.00;;;-140.72;100.00
38197;BME280;26543;51.976;4.616;2023-05-14T04:49:54;52687.13;;;-140.72;100.00
38197;BME280;26543;51.976;4.616;2023-05-14T04:52:19;52683.06;;;-140.72;100.00
38197;BME280;26543;51.976;4.616;2023-05-14T04:54:44;52681.03;;;-140.72;100.00
38197;BME280;26543;51.976;4.616;2023-05-14T04:57:10;52697.28;;;-140.72;100.00
38197;BME280;26543;51.976;4.616;2023-05-14T04:59:35;52707.41;;;-140.72;100.00
38197;BME280;26543;51.976;4.616;2023-05-14T05:02:00;52644.50;;;-140.72;100.00
38197;BME280;26543;51.976;4.616;2023-05-14T05:04:26;52658.72;;;-140.72;100.00
38197;BME280;26543;51.976;4.616;2023-05-14T05:06:51;52662.78;;;-140.72;100.00
38197;BME280;26543;51.976;4.616;2023-05-14T05:09:25;52711.47;;;-140.72;100.00
38197;BME280;26543;51.976;4.616;2023-05-14T05:11:50;52670.88;;;-140.72;100.00
38197;BME280;26543;51.976;4.616;2023-05-14T05:14:15;52670.88;;;-140.72;100.00
38197;BME280;26543;51.976;4.616;2023-05-14T05:16:41;52638.41;;;-140.72;100.00
38197;BME280;26543;51.976;4.616;2023-05-14T05:19:06;52672.91;;;-140.72;100.00
38197;BME280;26543;51.976;4.616;2023-05-14T05:21:31;52683.06;;;-140.72;100.00
38197;BME280;26543;51.976;4.616;2023-05-14T05:23:58;52683.06;;;-140.72;100.00
38197;BME280;26543;51.976;4.616;2023-05-14T05:26:23;52654.66;;;-140.72;100.00
38197;BME280;26543;51.976;4.616;2023-05-14T05:28:53;52699.31;;;-140.72;100.00
38197;BME280;26543;51.976;4.616;2023-05-14T05:31:19;52632.34;;;-140.72;100.00
38197;BME280;26543;51.976;4.616;2023-05-14T05:33:44;52644.50;;;-140.72;100.00
38197;BME280;26543;51.976;4.616;2023-05-14T05:36:09;52699.31;;;-140.72;100.00
38197;BME280;26543;51.976;4.616;2023-05-14T05:38:34;52687.13;;;-140.72;100.00
38197;BME280;26543;51.976;4.616;2023-05-14T05:41:00;52662.78;;;-140.72;100.00
38197;BME280;26543;51.976;4.616;2023-05-14T05:43:25;52656.69;;;-140.72;100.00
38197;BME280;26543;51.976;4.616;2023-05-14T05:45:52;52642.47;;;-140.72;100.00
38197;BME280;26543;51.976;4.616;2023-05-14T05:48:17;52691.19;;;-140.72;100.00
38197;BME280;26543;51.976;4.616;2023-05-14T05:50:45;52658.72;;;-140.72;100.00
38197;BME280;26543;51.976;4.616;2023-05-14T05:53:11;52626.25;;;-140.72;100.00
38197;BME280;26543;51.976;4.616;2023-05-14T05:55:36;52646.53;;;-140.72;100.00
38197;BME280;26543;51.976;4.616;2023-05-14T06:00:41;52650.59;;;-140.72;100.00
38197;BME280;26543;51.976;4.616;2023-05-14T06:03:06;52605.94;;;-140.72;100.00
38197;BME280;26543;51.976;4.616;2023-05-14T06:05:31;52612.03;;;-140.72;100.00
38197;BME280;26543;51.976;4.616;2023-05-14T06:07:56;52614.06;;;-140.72;100.00
38197;BME280;26543;51.976;4.616;2023-05-14T06:10:22;52612.03;;;-140.72;100.00
38197;BME280;26543;51.976;4.616;2023-05-14T06:12:47;52654.66;;;-140.72;100.00
38197;BME280;26543;51.976;4.616;2023-05-14T06:15:13;52666.84;;;-140.72;100.00
38197;BME280;26543;51.976;4.616;2023-05-14T06:17:38;52662.78;;;-140.72;100.00
38197;BME280;26543;51.976;4.616;2023-05-14T06:20:03;52662.78;;;-140.72;100.00
38197;BME280;26543;51.976;4.616;2023-05-14T06:22:29;52654.66;;;-140.72;100.00
38197;BME280;26543;51.976;4.616;2023-05-14T06:24:55;52648.56;;;-140.72;100.00
38197;BME280;26543;51.976;4.616;2023-05-14T06:27:20;52650.59;;;-140.72;100.00
38197;BME280;26543;51.976;4.616;2023-05-14T06:29:45;52614.06;;;-140.72;100.00
38197;BME280;26543;51.976;4.616;2023-05-14T06:32:10;52603.94;;;-140.72;100.00
38197;BME280;26543;51.976;4.616;2023-05-14T06:34:39;52612.03;;;-140.72;100.00
38197;BME280;26543;51.976;4.616;2023-05-14T06:37:04;52618.13;;;-140.72;100.00
38197;BME280;26543;51.976;4.616;2023-05-14T06:39:31;52601.91;;;-140.72;100.00
38197;BME280;26543;51.976;4.616;2023-05-14T06:41:56;52593.78;;;-140.72;100.00
38197;BME280;26543;51.976;4.616;2023-05-14T06:44:21;52561.31;;;-140.72;100.00
38197;BME280;26543;51.976;4.616;2023-05-14T06:46:46;52567.41;;;-140.72;100.00
38197;BME280;26543;51.976;4.616;2023-05-14T06:49:11;52607.97;;;-140.72;100.00
38197;BME280;26543;51.976;4.616;2023-05-14T06:51:37;52634.38;;;-140.72;100.00
38197;BME280;26543;51.976;4.616;2023-05-14T06:54:03;52595.81;;;-140.72;100.00
38197;BME280;26543;51.976;4.616;2023-05-14T06:56:28;52587.69;;;-140.72;100.00
38197;BME280;26543;51.976;4.616;2023-05-14T06:58:53;52626.25;;;-140.72;100.00
38197;BME280;26543;51.976;4.616;2023-05-14T07:01:18;52561.31;;;-140.72;100.00
38197;BME280;26543;51.976;4.616;2023-05-14T07:03:43;52656.69;;;-140.72;100.00
38197;BME280;26543;51.976;4.616;2023-05-14T07:06:09;52595.81;;;-140.72;100.00
38197;BME280;26543;51.976;4.616;2023-05-14T07:08:34;52597.84;;;-140.72;100.00
38197;BME280;26543;51.976;4.616;2023-05-14T07:11:00;52601.91;;;-140.72;100.00
38197;BME280;26543;51.976;4.616;2023-05-14T07:13:25;52612.03;;;-140.72;100.00
38197;BME280;26543;51.976;4.616;2023-05-14T07:15:52;52567.41;;;-140.72;100.00
38197;BME280;26543;51.976;4.616;2023-05-14T07:18:19;52597.84;;;-140.72;100.00
38197;BME280;26543;51.976;4.616;2023-05-14T07:20:44;52589.72;;;-140.72;100.00
38197;BME280;26543;51.976;4.616;2023-05-14T07:23:10;52530.88;;;-140.72;100.00
38197;BME280;26543;51.976;4.616;2023-05-14T07:28:20;52583.63;;;-140.72;100.00
38197;BME280;26543;51.976;4.616;2023-05-14T07:30:46;52571.47;;;-140.72;100.00
38197;BME280;26543;51.976;4.616;2023-05-14T07:33:11;52543.03;;;-140.72;100.00
38197;BME280;26543;51.976;4.616;2023-05-14T07:35:36;52532.91;;;-140.72;100.00
38197;BME280;26543;51.976;4.616;2023-05-14T07:38:02;52569.44;;;-140.72;100.00
38197;BME280;26543;51.976;4.616;2023-05-14T07:40:29;52593.78;;;-140.72;100.00
38197;BME280;26543;51.976;4.616;2023-05-14T07:42:54;52536.97;;;-140.72;100.00
38197;BME280;26543;51.976;4.616;2023-05-14T07:45:20;52506.53;;;-140.72;100.00
38197;BME280;26543;51.976;4.616;2023-05-14T07:47:45;52518.69;;;-140.72;100.00
38197;BME280;26543;51.976;4.616;2023-05-14T07:50:10;52526.81;;;-140.72;100.00
38197;BME280;26543;51.976;4.616;2023-05-14T07:52:35;52571.47;;;-140.72;100.00
38197;BME280;26543;51.976;4.616;2023-05-14T07:55:01;52516.66;;;-140.72;100.00
38197;BME280;26543;51.976;4.616;2023-05-14T07:57:27;52532.91;;;-140.72;100.00
38197;BME280;26543;51.976;4.616;2023-05-14T07:59:52;52547.09;;;-140.72;100.00
38197;BME280;26543;51.976;4.616;2023-05-14T08:02:17;52534.94;;;-140.72;100.00
38197;BME280;26543;51.976;4.616;2023-05-14T08:04:43;52488.25;;;-140.72;100.00
38197;BME280;26543;51.976;4.616;2023-05-14T08:07:08;52524.78;;;-140.72;100.00
38197;BME280;26543;51.976;4.616;2023-05-14T08:09:34;52502.47;;;-140.72;100.00
38197;BME280;26543;51.976;4.616;2023-05-14T08:11:59;52534.94;;;-140.72;100.00
38197;BME280;26543;51.976;4.616;2023-05-14T08:14:24;52520.72;;;-140.72;100.00
38197;BME280;26543;51.976;4.616;2023-05-14T08:16:50;52514.63;;;-140.72;100.00
38197;BME280;26543;51.976;4.616;2023-05-14T08:19:15;52539.00;;;-140.72;100.00
38197;BME280;26543;51.976;4.616;2023-05-14T08:21:40;52512.59;;;-140.72;100.00
38197;BME280;26543;51.976;4.616;2023-05-14T08:24:05;52536.97;;;-140.72;100.00
38197;BME280;26543;51.976;4.616;2023-05-14T08:26:31;52536.97;;;-140.72;100.00
38197;BME280;26543;51.976;4.616;2023-05-14T08:29:06;52500.44;;;-140.72;100.00
38197;BME280;26543;51.976;4.616;2023-05-14T08:31:31;52488.25;;;-140.72;100.00
38197;BME280;26543;51.976;4.616;2023-05-14T08:33:56;52528.84;;;-140.72;100.00
38197;BME280;26543;51.976;4.616;2023-05-14T08:36:22;52539.00;;;-140.72;100.00
38197;BME280;26543;51.976;4.616;2023-05-14T08:38:47;52514.63;;;-140.72;100.00
38197;BME280;26543;51.976;4.616;2023-05-14T08:41:14;52532.91;;;-140.72;100.00
38197;BME280;26543;51.976;4.616;2023-05-14T08:44:42;52530.88;;;-140.72;100.00
38197;BME280;26543;51.976;4.616;2023-05-14T08:46:35;52506.53;;;-140.72;100.00
38197;BME280;26543;51.976;4.616;2023-05-14T08:49:46;52470.00;;;-140.72;100.00
38197;BME280;26543;51.976;4.616;2023-05-14T08:51:47;52455.78;;;-140.72;100.00
38197;BME280;26543;51.976;4.616;2023-05-14T08:54:14;52413.19;;;-140.72;100.00
38197;BME280;26543;51.976;4.616;2023-05-14T08:56:40;52465.94;;;-140.72;100.00
38197;BME280;26543;51.976;4.616;2023-05-14T08:59:07;52508.56;;;-140.72;100.00
38197;BME280;26543;51.976;4.616;2023-05-14T09:01:32;52465.94;;;-140.72;100.00
38197;BME280;26543;51.976;4.616;2023-05-14T09:03:58;52512.59;;;-140.72;100.00
38197;BME280;26543;51.976;4.616;2023-05-14T09:06:25;52431.44;;;-140.72;100.00
38197;BME280;26543;51.976;4.616;2023-05-14T09:08:51;52496.38;;;-140.72;100.00
38197;BME280;26543;51.976;4.616;2023-05-14T09:11:17;52394.91;;;-140.72;100.00
38197;BME280;26543;51.976;4.616;2023-05-14T09:13:42;52354.34;;;-140.72;100.00
38197;BME280;26543;51.976;4.616;2023-05-14T09:16:07;52380.72;;;-140.72;78.24
38197;BME280;26543;51.976;4.616;2023-05-14T09:18:34;52423.31;;;-140.72;45.78
38197;BME280;26543;51.976;4.616;2023-05-14T09:20:59;52431.44;;;-140.72;38.19
38197;BME280;26543;51.976;4.616;2023-05-14T09:23:25;52350.28;;;-140.72;48.54
38197;BME280;26543;51.976;4.616;2023-05-14T09:25:51;52364.47;;;-140.72;31.75
38197;BME280;26543;51.976;4.616;2023-05-14T09:28:16;52368.53;;;-140.72;18.28
38197;BME280;26543;51.976;4.616;2023-05-14T09:30:45;52338.09;;;-140.72;0.00
38197;BME280;26543;51.976;4.616;2023-05-14T09:33:11;52321.88;;;-140.72;0.00
38197;BME280;26543;51.976;4.616;2023-05-14T09:35:36;52291.44;;;-140.72;0.00
38197;BME280;26543;51.976;4.616;2023-05-14T09:38:04;52293.47;;;-140.72;0.00
38197;BME280;26543;51.976;4.616;2023-05-14T09:40:29;52265.06;;;-140.72;0.00
38197;BME280;26543;51.976;4.616;2023-05-14T09:42:54;52275.19;;;-140.72;0.00
38197;BME280;26543;51.976;4.616;2023-05-14T09:45:20;52256.94;;;-140.72;0.00
38197;BME280;26543;51.976;4.616;2023-05-14T09:47:45;52269.13;;;-140.72;0.00
38197;BME280;26543;51.976;4.616;2023-05-14T09:50:10;52311.72;;;-140.72;0.00
38197;BME280;26543;51.976;4.616;2023-05-14T09:52:36;52252.88;;;-140.72;0.00
38197;BME280;26543;51.976;4.616;2023-05-14T09:55:02;52226.50;;;-140.72;0.00
38197;BME280;26543;51.976;4.616;2023-05-14T09:57:28;52212.31;;;-140.72;0.00
38197;BME280;26543;51.976;4.616;2023-05-14T09:59:53;52206.22;;;-140.72;0.00
38197;BME280;26543;51.976;4.616;2023-05-14T10:02:23;52242.75;;;-140.72;0.00
38197;BME280;26543;51.976;4.616;2023-05-14T10:04:49;52226.50;;;-140.72;0.00
38197;BME280;26543;51.976;4.616;2023-05-14T10:07:16;52187.97;;;-140.72;0.00
38197;BME280;26543;51.976;4.616;2023-05-14T10:09:45;52183.91;;;-140.72;0.00
38197;BME280;26543;51.976;4.616;2023-05-14T10:12:10;52143.31;;;-140.72;0.00
38197;BME280;26543;51.976;4.616;2023-05-14T10:14:37;52139.25;;;-140.72;0.00
38197;BME280;26543;51.976;4.616;2023-05-14T10:17:04;52100.72;;;-140.72;0.00
38197;BME280;26543;51.976;4.616;2023-05-14T10:19:31;52088.53;;;-140.72;0.00
38197;BME280;26543;51.976;4.616;2023-05-14T10:21:59;52082.44;;;-140.72;0.00
38197;BME280;26543;51.976;4.616;2023-05-14T10:24:28;52139.25;;;-140.72;0.00
38197;BME280;26543;51.976;4.616;2023-05-14T10:26:53;52145.34;;;-140.72;0.00
38197;BME280;26543;51.976;4.616;2023-05-14T10:29:19;52123.03;;;-140.72;0.00
38197;BME280;26543;51.976;4.616;2023-05-14T10:31:48;52108.81;;;-140.72;0.00
38197;BME280;26543;51.976;4.616;2023-05-14T10:37:00;52084.47;;;-140.72;0.00
38197;BME280;26543;51.976;4.616;2023-05-14T10:39:45;52001.28;;;-140.72;0.00
38197;BME280;26543;51.976;4.616;2023-05-14T10:42:17;52033.75;;;-140.72;0.00
38197;BME280;26543;51.976;4.616;2023-05-14T10:44:52;51962.75;;;-140.72;0.00
38197;BME280;26543;51.976;4.616;2023-05-14T10:47:19;52001.28;;;-140.72;0.00
38197;BME280;26543;51.976;4.616;2023-05-14T10:49:45;52052.00;;;-140.72;0.00
38197;BME280;26543;51.976;4.616;2023-05-14T10:52:13;52017.53;;;-140.72;0.00
38197;BME280;26543;51.976;4.616;2023-05-14T10:54:39;51995.19;;;-140.72;0.00
38197;BME280;26543;51.976;4.616;2023-05-14T10:57:10;52015.50;;;-140.72;0.00
38197;BME280;26543;51.976;4.616;2023-05-14T10:59:36;51948.53;;;-140.72;0.00
38197;BME280;26543;51.976;4.616;2023-05-14T11:02:03;51976.94;;;-140.72;0.00
38197;BME280;26543;51.976;4.616;2023-05-14T11:04:30;51948.53;;;-140.72;0.00
38197;BME280;26543;51.976;4.616;2023-05-14T11:06:55;51910.00;;;-140.72;0.00
38197;BME280;26543;51.976;4.616;2023-05-14T11:09:21;51930.28;;;-140.72;0.00
38197;BME280;26543;51.976;4.616;2023-05-14T11:11:47;51910.00;;;-140.72;0.00
38197;BME280;26543;51.976;4.616;2023-05-14T11:14:13;52005.34;;;-140.72;0.00
38197;BME280;26543;51.976;4.616;2023-05-14T11:16:38;51972.88;;;-140.72;0.00
38197;BME280;26543;51.976;4.616;2023-05-14T11:19:05;51956.66;;;-140.72;0.00
38197;BME280;26543;51.976;4.616;2023-05-14T11:21:30;51912.03;;;-140.72;0.00
38197;BME280;26543;51.976;4.616;2023-05-14T11:24:11;51968.81;;;-140.72;0.00
38197;BME280;26543;51.976;4.616;2023-05-14T11:26:37;51950.56;;;-140.72;0.00
38197;BME280;26543;51.976;4.616;2023-05-14T11:29:03;52001.28;;;-140.72;0.00
38197;BME280;26543;51.976;4.616;2023-05-14T11:31:28;51976.94;;;-140.72;0.00
38197;BME280;26543;51.976;4.616;2023-05-14T11:33:54;51997.22;;;-140.72;0.00
38197;BME280;26543;51.976;4.616;2023-05-14T11:36:19;52001.28;;;-140.72;0.00
38197;BME280;26543;51.976;4.616;2023-05-14T11:38:45;51987.09;;;-140.72;0.00
38197;BME280;26543;51.976;4.616;2023-05-14T11:41:13;51997.22;;;-140.72;0.00
38197;BME280;26543;51.976;4.616;2023-05-14T11:43:38;51928.25;;;-140.72;0.00
38197;BME280;26543;51.976;4.616;2023-05-14T11:46:03;51881.59;;;-140.72;0.00
38197;BME280;26543;51.976;4.616;2023-05-14T11:48:30;51916.06;;;-140.72;0.00
38197;BME280;26543;51.976;4.616;2023-05-14T11:50:55;51920.13;;;-140.72;0.00
38197;BME280;26543;51.976;4.616;2023-05-14T11:53:25;51855.22;;;-140.72;0.00
38197;BME280;26543;51.976;4.616;2023-05-14T11:55:51;51867.38;;;-140.72;0.00
38197;BME280;26543;51.976;4.616;2023-05-14T11:58:16;51841.00;;;-140.72;0.00
38197;BME280;26543;51.976;4.616;2023-05-14T12:00:54;51887.66;;;-140.72;0.00
38197;BME280;26543;51.976;4.616;2023-05-14T12:03:19;51875.50;;;-140.72;0.00
38197;BME280;26543;51.976;4.616;2023-05-14T12:05:58;51885.66;;;-140.72;0.00
38197;BME280;26543;51.976;4.616;2023-05-14T12:10:57;51956.66;;;-140.72;0.00
38197;BME280;26543;51.976;4.616;2023-05-14T12:13:24;51932.31;;;-140.72;0.00
38197;BME280;26543;51.976;4.616;2023-05-14T12:15:54;52019.56;;;-140.72;0.00
38197;BME280;26543;51.976;4.616;2023-05-14T12:18:20;51999.25;;;-140.72;0.00
38197;BME280;26543;51.976;4.616;2023-05-14T12:20:48;51944.47;;;-140.72;0.00
38197;BME280;26543;51.976;4.616;2023-05-14T12:23:15;52011.44;;;-140.72;0.00
38197;BME280;26543;51.976;4.616;2023-05-14T12:25:48;52027.66;;;-140.72;0.00
38197;BME280;26543;51.976;4.616;2023-05-14T12:28:14;52041.88;;;-140.72;0.00
38197;BME280;26543;51.976;4.616;2023-05-14T12:30:39;52045.94;;;-140.72;0.00
38197;BME280;26543;51.976;4.616;2023-05-14T12:33:05;51999.25;;;-140.72;0.00
38197;BME280;26543;51.976;4.616;2023-05-14T12:35:31;52058.09;;;-140.72;0.00
38197;BME280;26543;51.976;4.616;2023-05-14T12:37:56;52041.88;;;-140.72;0.00
38197;BME280;26543;51.976;4.616;2023-05-14T12:40:21;52035.78;;;-140.72;0.00
38197;BME280;26543;51.976;4.616;2023-05-14T12:42:46;52068.25;;;-140.72;0.00
38197;BME280;26543;51.976;4.616;2023-05-14T12:45:12;52035.78;;;-140.72;0.00
38197;BME280;26543;51.976;4.616;2023-05-14T12:47:37;52015.50;;;-140.72;0.00